VG49 weather

Tappahannock Hospital Heliport
Tappahannock, Virginia, United States

Public forecast

Using degrees Fahrenheit for public forecast. Weather courtesy of forecast.io.

Closest aviation weather report (METAR) to Tappahannock Hospital Heliport

Closest report is Tappahannock-Essex County Airport, 2.6 nm (4.9 km) SSW. Retrieved 2019/11/15 16:35 UTC (21 minutes ago):

KXSA 151635Z AUTO 01004KT 10SM SCT100 07/04 A3025 RMK AO2 T00730039

Closest aviation forecast (TAF) to Tappahannock Hospital Heliport

Closest forecast is Richmond International Airport, 31.7 nm (58.8 km) SW. Retrieved 2019/11/15 12:33 UTC (4 hours ago):

TAF KRIC 151130Z 1512/1612 01006KT P6SM BKN025 OVC040 FM151700 03009KT P6SM OVC060 FM160800 01012G20KT P6SM BKN045